Time;durP1;ratioP1;P1;durP2;ratioP2;P2;SDS_P1;SDS_P2;PMS_P1;PMS_P2;Temp;Humidity;BMP_temperature;BMP_pressure;BME280_temperature;BME280_humidity;BME280_pressure;Samples;Min_cycle;Max_cycle;Signal;HPM_P1;HPM_P2
2023/05/19 00:01:12;;;;;;;18.33;7.00;;;7.90;99.90;;;;;;4995006;28;20430;-80
2023/05/19 00:03:51;;;;;;;15.17;5.27;;;7.80;99.90;;;;;;5007814;28;21005;-80
2023/05/19 00:06:20;;;;;;;12.77;5.93;;;7.80;99.90;;;;;;4990292;28;20414;-77
2023/05/19 00:08:46;;;;;;;17.45;5.95;;;7.90;99.90;;;;;;4962630;28;20435;-80
2023/05/19 00:11:12;;;;;;;11.77;6.65;;;7.80;99.90;;;;;;5009305;28;20446;-78
2023/05/19 00:13:38;;;;;;;14.95;6.65;;;7.70;99.90;;;;;;5006394;28;20416;-78
2023/05/19 00:16:05;;;;;;;13.52;5.75;;;7.60;99.90;;;;;;5007783;28;20838;-75
2023/05/19 00:18:31;;;;;;;12.53;6.77;;;7.60;99.90;;;;;;5022026;28;20511;-80
2023/05/19 00:20:56;;;;;;;16.35;6.78;;;7.70;99.90;;;;;;5009424;28;20440;-80
2023/05/19 00:23:22;;;;;;;10.90;5.85;;;7.70;99.90;;;;;;5006848;28;20441;-80
2023/05/19 00:25:47;;;;;;;13.97;7.07;;;7.70;99.90;;;;;;5008739;28;20409;-80
2023/05/19 00:28:13;;;;;;;11.83;5.53;;;7.70;99.90;;;;;;5018855;28;20787;-81
2023/05/19 00:30:39;;;;;;;14.17;6.77;;;7.80;99.90;;;;;;5009428;28;20433;-80
2023/05/19 00:33:04;;;;;;;14.87;6.43;;;7.80;99.90;;;;;;5007104;28;20435;-79
2023/05/19 00:35:30;;;;;;;11.20;5.45;;;7.70;99.90;;;;;;5008090;28;20982;-80
2023/05/19 00:37:56;;;;;;;16.63;7.68;;;7.60;99.90;;;;;;4986642;28;20525;-78
2023/05/19 00:40:23;;;;;;;16.10;7.32;;;8.30;99.90;;;;;;5007921;28;20538;-79
2023/05/19 00:42:48;;;;;;;11.65;6.55;;;7.60;99.90;;;;;;4988495;28;20868;-74
2023/05/19 00:45:14;;;;;;;14.93;6.45;;;7.50;99.90;;;;;;5016888;28;20449;-80
2023/05/19 00:47:40;;;;;;;12.75;6.40;;;7.50;99.90;;;;;;5026139;28;20427;-78
2023/05/19 00:50:06;;;;;;;10.60;6.65;;;7.60;99.90;;;;;;5007869;28;20575;-75
2023/05/19 00:52:31;;;;;;;13.90;7.15;;;7.40;99.90;;;;;;4992396;28;20425;-80
2023/05/19 00:54:58;;;;;;;17.15;6.28;;;7.40;99.90;;;;;;5007889;28;20425;-81
2023/05/19 00:57:24;;;;;;;14.87;6.13;;;7.40;99.90;;;;;;5019132;28;20444;-80
2023/05/19 00:59:50;;;;;;;13.93;7.13;;;7.60;99.90;;;;;;5010610;28;20431;-78
2023/05/19 01:02:16;;;;;;;14.05;7.32;;;7.50;99.90;;;;;;5005857;28;20428;-79
2023/05/19 01:04:44;;;;;;;10.45;5.78;;;7.40;99.90;;;;;;5010061;28;20431;-76
2023/05/19 01:07:11;;;;;;;15.03;6.80;;;7.50;99.90;;;;;;5019354;28;20423;-77
2023/05/19 01:09:37;;;;;;;13.93;6.88;;;7.70;99.90;;;;;;5014695;28;20516;-82
2023/05/19 01:12:03;;;;;;;11.80;6.20;;;7.60;99.90;;;;;;5006067;28;20535;-78
2023/05/19 01:14:29;;;;;;;12.27;7.05;;;7.50;99.90;;;;;;5007294;28;20423;-81
2023/05/19 01:17:06;;;;;;;12.45;6.28;;;7.50;99.90;;;;;;5015191;28;20766;-78
2023/05/19 01:20:01;;;;;;;16.98;7.07;;;7.50;99.90;;;;;;5012903;28;20412;-78
2023/05/19 01:23:09;;;;;;;14.10;7.40;;;7.40;99.90;;;;;;5004831;28;20441;-76
2023/05/19 01:26:10;;;;;;;14.10;7.13;;;7.40;99.90;;;;;;4999069;28;20790;-79
2023/05/19 01:29:01;;;;;;;13.10;6.55;;;7.40;99.90;;;;;;4978933;28;20468;-77
2023/05/19 01:31:28;;;;;;;13.18;6.60;;;7.40;99.90;;;;;;5007761;28;20831;-80
2023/05/19 01:33:54;;;;;;;12.68;7.25;;;7.30;99.90;;;;;;5007933;28;20424;-80
2023/05/19 01:36:22;;;;;;;14.93;6.25;;;7.30;99.90;;;;;;5008365;28;20460;-74
2023/05/19 01:38:50;;;;;;;9.95;5.47;;;7.30;99.90;;;;;;5008531;28;20432;-79
2023/05/19 01:41:18;;;;;;;13.23;6.55;;;7.20;99.90;;;;;;5006767;28;20811;-76
2023/05/19 01:43:44;;;;;;;12.35;6.65;;;7.10;99.90;;;;;;5005199;28;20429;-80
2023/05/19 01:46:11;;;;;;;11.57;6.38;;;7.00;99.90;;;;;;5025543;28;20419;-79
2023/05/19 01:48:37;;;;;;;13.48;6.35;;;7.00;99.90;;;;;;5007824;28;20477;-79
2023/05/19 01:51:03;;;;;;;14.27;6.85;;;7.00;99.90;;;;;;5006495;28;20780;-79
2023/05/19 01:53:29;;;;;;;14.35;6.32;;;7.20;99.90;;;;;;5012204;28;20506;-80
2023/05/19 01:55:56;;;;;;;12.77;7.47;;;7.20;99.90;;;;;;5028053;28;20510;-80
2023/05/19 01:58:47;;;;;;;13.95;6.20;;;7.00;99.90;;;;;;4993041;28;20420;-73
2023/05/19 02:01:27;;;;;;;12.82;6.97;;;7.00;99.90;;;;;;5007443;28;20433;-78
2023/05/19 02:04:20;;;;;;;14.38;6.57;;;7.20;99.90;;;;;;4967284;28;20512;-77
2023/05/19 02:06:54;;;;;;;12.70;7.43;;;7.10;99.90;;;;;;4989453;28;20915;-78
2023/05/19 02:09:34;;;;;;;13.05;6.97;;;7.10;99.90;;;;;;5007075;28;20463;-76
2023/05/19 02:12:33;;;;;;;13.40;7.43;;;7.00;99.90;;;;;;5011144;28;20419;-78
2023/05/19 02:15:10;;;;;;;12.75;7.15;;;7.00;99.90;;;;;;4990236;28;20439;-80
2023/05/19 02:17:40;;;;;;;14.07;7.20;;;7.20;99.90;;;;;;4988839;28;20495;-80
2023/05/19 02:20:08;;;;;;;15.63;6.70;;;7.20;99.90;;;;;;5005246;28;20448;-80
2023/05/19 02:22:34;;;;;;;15.73;6.22;;;7.20;99.90;;;;;;5013408;28;20504;-79
2023/05/19 02:24:59;;;;;;;12.00;6.20;;;7.20;99.90;;;;;;5006698;28;21026;-79
2023/05/19 02:27:25;;;;;;;12.68;6.95;;;7.10;99.90;;;;;;4985640;28;20420;-79
2023/05/19 02:29:51;;;;;;;11.38;6.60;;;7.00;99.90;;;;;;5007269;28;20424;-80
2023/05/19 02:32:17;;;;;;;11.32;6.65;;;7.10;99.90;;;;;;5018502;28;20447;-75
2023/05/19 02:34:44;;;;;;;10.73;6.10;;;7.20;99.90;;;;;;5006138;28;20464;-77
2023/05/19 02:37:13;;;;;;;15.07;7.20;;;7.00;99.90;;;;;;5008463;28;20421;-77
2023/05/19 02:39:39;;;;;;;12.30;5.88;;;7.20;99.90;;;;;;5010402;28;20429;-78
2023/05/19 02:42:05;;;;;;;18.33;7.20;;;6.90;99.90;;;;;;5020543;28;20442;-80
2023/05/19 02:44:31;;;;;;;11.23;6.33;;;7.00;99.90;;;;;;5011999;28;20420;-80
2023/05/19 02:46:56;;;;;;;13.17;6.17;;;7.10;99.90;;;;;;5018713;28;21026;-79
2023/05/19 02:49:22;;;;;;;14.73;6.07;;;7.10;99.90;;;;;;5009212;28;20449;-81
2023/05/19 02:51:47;;;;;;;11.35;6.13;;;7.00;99.90;;;;;;5009006;28;20429;-78
2023/05/19 02:54:13;;;;;;;15.75;6.57;;;6.80;99.90;;;;;;5010546;28;20926;-80
2023/05/19 02:56:39;;;;;;;11.90;5.80;;;6.90;99.90;;;;;;5009292;28;20521;-74
2023/05/19 02:59:05;;;;;;;11.35;5.80;;;6.80;99.90;;;;;;5006909;28;20469;-80
2023/05/19 03:01:31;;;;;;;12.55;6.68;;;6.80;99.90;;;;;;5018609;28;20438;-76
2023/05/19 03:03:57;;;;;;;11.20;6.68;;;6.70;99.90;;;;;;5012842;28;20508;-79
2023/05/19 03:06:23;;;;;;;13.23;6.05;;;6.90;99.90;;;;;;4993929;28;20429;-76
2023/05/19 03:08:49;;;;;;;10.75;6.50;;;6.90;99.90;;;;;;5010521;28;20903;-80
2023/05/19 03:11:15;;;;;;;17.48;6.80;;;6.90;99.90;;;;;;5008545;28;20956;-76
2023/05/19 03:13:41;;;;;;;13.32;6.43;;;6.90;99.90;;;;;;5023217;28;20504;-79
2023/05/19 03:16:07;;;;;;;15.35;6.05;;;6.90;99.90;;;;;;5011054;28;20523;-81
2023/05/19 03:18:36;;;;;;;12.13;5.93;;;6.80;99.90;;;;;;4991648;28;20421;-73
2023/05/19 03:21:02;;;;;;;9.80;6.13;;;6.90;99.90;;;;;;5010135;28;20444;-78
2023/05/19 03:23:28;;;;;;;13.35;5.97;;;6.90;99.90;;;;;;5012957;28;20444;-74
2023/05/19 03:25:55;;;;;;;8.93;5.35;;;6.90;99.90;;;;;;5012754;28;20416;-80
2023/05/19 03:28:22;;;;;;;14.98;6.55;;;6.90;99.90;;;;;;5010502;28;20515;-75
2023/05/19 03:30:49;;;;;;;14.07;5.60;;;6.90;99.90;;;;;;5012179;28;20433;-78
2023/05/19 03:33:15;;;;;;;12.50;6.43;;;7.00;99.90;;;;;;5019431;28;20422;-80
2023/05/19 03:35:43;;;;;;;11.60;5.30;;;6.90;99.90;;;;;;5013320;28;20451;-79
2023/05/19 03:38:08;;;;;;;12.00;5.88;;;7.00;99.90;;;;;;5012415;28;20424;-78
2023/05/19 03:40:34;;;;;;;14.30;5.85;;;6.90;99.90;;;;;;5025057;28;20496;-81
2023/05/19 03:43:00;;;;;;;13.40;5.95;;;7.00;99.90;;;;;;5010880;28;20436;-74
2023/05/19 03:45:26;;;;;;;11.57;5.20;;;7.00;99.90;;;;;;5010239;28;20825;-80
2023/05/19 03:47:51;;;;;;;10.18;5.43;;;7.00;99.90;;;;;;5023871;28;20504;-79
2023/05/19 03:50:17;;;;;;;14.67;6.20;;;7.10;99.90;;;;;;5009155;28;20491;-79
2023/05/19 03:52:45;;;;;;;10.00;4.70;;;7.10;99.90;;;;;;5010219;28;20429;-80
2023/05/19 03:55:11;;;;;;;16.23;6.03;;;7.00;99.90;;;;;;5006713;28;20436;-80
2023/05/19 03:57:36;;;;;;;15.48;6.40;;;7.10;99.90;;;;;;5010400;28;20516;-75
2023/05/19 04:00:04;;;;;;;13.90;5.53;;;7.10;99.90;;;;;;5009406;28;20518;-81
2023/05/19 04:02:30;;;;;;;11.77;4.90;;;7.00;99.90;;;;;;5029850;28;20423;-78
2023/05/19 04:04:56;;;;;;;17.30;6.57;;;7.10;99.90;;;;;;5018327;28;20421;-76
2023/05/19 04:07:22;;;;;;;12.60;6.23;;;7.20;99.90;;;;;;5009712;28;20420;-79
2023/05/19 04:09:49;;;;;;;15.20;5.60;;;7.70;99.90;;;;;;5008638;28;20425;-79
2023/05/19 04:12:15;;;;;;;13.60;5.05;;;8.20;99.90;;;;;;5010016;28;20417;-76
2023/05/19 04:14:41;;;;;;;12.17;4.80;;;8.50;99.90;;;;;;5024679;28;20417;-77
2023/05/19 04:17:07;;;;;;;14.23;4.50;;;8.60;99.90;;;;;;5010822;28;20452;-79
2023/05/19 04:19:33;;;;;;;11.93;5.18;;;8.70;99.90;;;;;;5006086;28;20444;-76
2023/05/19 04:21:58;;;;;;;10.00;4.55;;;8.20;99.90;;;;;;5018954;28;20431;-79
2023/05/19 04:24:24;;;;;;;10.75;4.85;;;8.00;99.90;;;;;;5010113;28;20532;-80
2023/05/19 04:26:50;;;;;;;13.10;5.35;;;7.80;99.90;;;;;;4992256;28;20444;-77
2023/05/19 04:29:16;;;;;;;13.23;4.33;;;7.70;99.90;;;;;;5010779;28;20538;-76
2023/05/19 04:31:45;;;;;;;12.53;4.50;;;7.80;99.90;;;;;;5011114;28;20412;-78
2023/05/19 04:34:11;;;;;;;10.80;4.10;;;7.90;99.90;;;;;;5011070;28;20427;-78
2023/05/19 04:36:37;;;;;;;14.35;5.47;;;7.80;99.90;;;;;;5011318;28;20436;-75
2023/05/19 04:39:06;;;;;;;14.52;5.50;;;8.00;99.90;;;;;;5009916;28;20478;-77
2023/05/19 04:41:33;;;;;;;15.48;6.50;;;8.10;99.90;;;;;;4991231;28;20523;-77
2023/05/19 04:43:59;;;;;;;14.50;5.07;;;8.20;99.90;;;;;;5007646;28;20424;-78
2023/05/19 04:46:28;;;;;;;14.15;5.50;;;8.10;99.90;;;;;;5005803;28;20487;-75
2023/05/19 04:48:55;;;;;;;17.98;6.68;;;8.00;99.90;;;;;;5007103;28;20421;-78
2023/05/19 04:51:26;;;;;;;13.50;5.97;;;8.20;99.90;;;;;;5008062;28;21181;-79
2023/05/19 04:53:55;;;;;;;14.30;5.68;;;8.20;99.90;;;;;;5008277;28;20433;-78
2023/05/19 04:56:21;;;;;;;15.15;5.80;;;8.30;99.90;;;;;;5005584;28;20799;-77
2023/05/19 04:58:47;;;;;;;14.50;5.55;;;8.40;99.90;;;;;;5020286;28;20427;-78
2023/05/19 05:01:14;;;;;;;15.88;5.00;;;8.40;99.90;;;;;;5005834;28;20876;-77
2023/05/19 05:03:41;;;;;;;13.82;5.60;;;8.40;99.90;;;;;;5005388;28;20516;-77
2023/05/19 05:06:07;;;;;;;13.95;5.95;;;8.50;99.90;;;;;;5010966;28;20458;-77
2023/05/19 05:08:33;;;;;;;26.08;5.85;;;9.00;99.90;;;;;;5013725;28;20424;-75
2023/05/19 05:10:59;;;;;;;16.02;5.70;;;8.60;99.90;;;;;;5010642;28;20455;-77
2023/05/19 05:13:25;;;;;;;14.07;5.77;;;8.60;99.90;;;;;;5005896;28;20427;-75
2023/05/19 05:15:51;;;;;;;13.40;5.88;;;8.70;99.90;;;;;;5007716;28;20647;-76
2023/05/19 05:18:18;;;;;;;14.80;6.10;;;8.80;99.90;;;;;;5017849;28;20430;-76
2023/05/19 05:20:45;;;;;;;15.05;5.60;;;8.70;99.90;;;;;;5019942;28;20431;-76
2023/05/19 05:23:14;;;;;;;12.95;5.70;;;8.90;99.90;;;;;;5014243;28;20443;-79
2023/05/19 05:25:40;;;;;;;16.57;6.07;;;8.90;99.90;;;;;;5007637;28;20421;-77
2023/05/19 05:28:06;;;;;;;15.30;6.78;;;8.90;99.90;;;;;;5010777;28;20901;-77
2023/05/19 05:30:33;;;;;;;12.83;5.93;;;9.00;99.90;;;;;;5014008;28;20499;-77
2023/05/19 05:33:00;;;;;;;14.25;5.70;;;9.10;99.90;;;;;;5009805;28;20416;-78
2023/05/19 05:35:26;;;;;;;18.02;7.20;;;9.20;99.90;;;;;;5007036;28;20491;-79
2023/05/19 05:37:52;;;;;;;13.38;5.47;;;9.30;99.90;;;;;;5008775;28;20400;-75
2023/05/19 05:40:18;;;;;;;14.70;6.53;;;9.60;99.90;;;;;;5006190;28;20437;-78
2023/05/19 05:42:43;;;;;;;13.40;6.45;;;9.60;99.90;;;;;;5006797;28;20503;-78
2023/05/19 05:45:09;;;;;;;15.65;7.22;;;9.60;99.90;;;;;;5011591;28;20465;-76
2023/05/19 05:47:37;;;;;;;17.35;6.57;;;9.90;99.90;;;;;;5007971;28;20753;-77
2023/05/19 05:50:07;;;;;;;14.75;7.07;;;10.10;99.90;;;;;;5007632;28;20511;-77
2023/05/19 05:52:36;;;;;;;13.60;5.60;;;9.90;99.90;;;;;;5004400;28;20476;-77
2023/05/19 05:55:02;;;;;;;17.17;6.15;;;10.00;99.90;;;;;;4990416;28;20428;-77
2023/05/19 05:57:29;;;;;;;17.00;5.57;;;10.20;99.90;;;;;;4988906;28;20776;-80
2023/05/19 05:59:56;;;;;;;14.30;6.13;;;10.10;99.90;;;;;;4990717;28;20507;-77
2023/05/19 06:02:21;;;;;;;17.48;6.70;;;10.40;99.90;;;;;;5016911;28;20440;-78
2023/05/19 06:04:47;;;;;;;13.27;5.57;;;10.30;99.90;;;;;;5011222;28;20429;-78
2023/05/19 06:07:13;;;;;;;14.38;5.43;;;10.50;99.90;;;;;;4994246;28;20514;-79
2023/05/19 06:09:38;;;;;;;14.15;6.45;;;10.50;99.90;;;;;;5017932;28;20493;-77
2023/05/19 06:12:05;;;;;;;15.60;5.77;;;10.70;99.90;;;;;;5016340;28;20427;-80
2023/05/19 06:14:31;;;;;;;12.55;5.43;;;10.70;99.90;;;;;;5010263;28;20415;-78
2023/05/19 06:16:56;;;;;;;11.47;6.07;;;10.80;99.90;;;;;;5008036;28;20612;-79
2023/05/19 06:19:24;;;;;;;10.17;5.20;;;10.80;99.90;;;;;;5007676;28;20507;-81
2023/05/19 06:21:50;;;;;;;16.10;5.90;;;10.90;99.90;;;;;;4995181;28;20493;-80
2023/05/19 06:24:16;;;;;;;13.38;5.30;;;11.00;99.90;;;;;;5007521;28;20783;-80
2023/05/19 06:26:41;;;;;;;11.50;4.97;;;11.00;99.90;;;;;;5008063;28;20420;-81
2023/05/19 06:29:07;;;;;;;14.18;5.60;;;11.10;99.90;;;;;;5007324;28;20424;-77
2023/05/19 06:31:33;;;;;;;13.60;5.57;;;11.20;99.90;;;;;;5008044;28;20421;-80
2023/05/19 06:33:58;;;;;;;15.20;5.95;;;11.30;99.90;;;;;;5010200;28;20480;-82
2023/05/19 06:36:24;;;;;;;13.67;5.30;;;11.20;99.90;;;;;;5009654;28;20858;-75
2023/05/19 06:38:51;;;;;;;9.13;4.40;;;11.50;99.90;;;;;;5008377;28;21006;-80
2023/05/19 06:41:16;;;;;;;13.43;5.15;;;11.50;99.90;;;;;;5010104;28;20485;-76
2023/05/19 06:43:42;;;;;;;11.88;4.75;;;11.60;99.90;;;;;;5007961;28;20428;-80
2023/05/19 06:46:08;;;;;;;10.45;4.65;;;11.60;99.90;;;;;;5006765;28;20426;-80
2023/05/19 06:48:34;;;;;;;7.20;4.80;;;11.60;99.90;;;;;;5008247;28;20432;-79
2023/05/19 06:50:59;;;;;;;12.60;4.75;;;12.00;99.90;;;;;;5006726;28;20509;-79
2023/05/19 06:53:25;;;;;;;10.95;3.80;;;12.10;99.90;;;;;;5010147;28;20459;-75
2023/05/19 06:55:51;;;;;;;9.67;4.60;;;12.40;99.90;;;;;;5004870;28;20433;-78
2023/05/19 06:58:16;;;;;;;11.07;3.83;;;12.80;99.90;;;;;;5010332;28;20420;-76
2023/05/19 07:00:42;;;;;;;12.25;4.65;;;12.30;99.90;;;;;;5029053;28;20523;-75
2023/05/19 07:03:08;;;;;;;10.05;3.90;;;12.30;99.90;;;;;;5017713;28;20499;-80
2023/05/19 07:05:34;;;;;;;9.32;3.83;;;12.60;99.90;;;;;;5009363;28;20806;-76
2023/05/19 07:08:00;;;;;;;10.98;4.05;;;14.60;99.90;;;;;;5005096;28;20512;-76
2023/05/19 07:10:27;;;;;;;11.43;4.35;;;15.90;99.90;;;;;;5006010;28;20432;-78
2023/05/19 07:12:52;;;;;;;10.88;4.43;;;16.40;99.90;;;;;;5007161;28;20435;-79
2023/05/19 07:15:18;;;;;;;6.55;2.75;;;16.50;99.90;;;;;;4990152;28;20436;-80
2023/05/19 07:17:44;;;;;;;10.10;4.00;;;17.30;99.90;;;;;;5005309;28;20440;-79
2023/05/19 07:20:10;;;;;;;9.87;3.17;;;16.70;99.90;;;;;;5005024;28;20806;-79
2023/05/19 07:22:38;;;;;;;9.97;2.80;;;17.50;99.90;;;;;;5010505;28;20448;-77
2023/05/19 07:25:05;;;;;;;7.28;3.35;;;17.10;99.90;;;;;;5008601;28;20544;-78
2023/05/19 07:27:30;;;;;;;8.53;4.27;;;17.50;99.90;;;;;;5013414;28;20514;-75
2023/05/19 07:29:56;;;;;;;6.97;3.03;;;17.40;99.90;;;;;;5016869;28;20436;-78
2023/05/19 07:32:22;;;;;;;6.35;2.92;;;17.90;99.90;;;;;;5010526;28;20436;-78
2023/05/19 07:34:48;;;;;;;9.45;4.00;;;17.20;99.90;;;;;;5008679;28;20433;-75
2023/05/19 07:37:14;;;;;;;7.60;3.35;;;16.20;99.90;;;;;;5007482;28;20429;-77
2023/05/19 07:39:40;;;;;;;8.05;3.35;;;16.20;99.90;;;;;;5008298;28;21355;-79
2023/05/19 07:42:06;;;;;;;7.67;3.40;;;15.20;99.90;;;;;;5010455;28;20705;-82
2023/05/19 07:44:31;;;;;;;9.45;3.60;;;14.60;99.90;;;;;;5006887;28;20520;-81
2023/05/19 07:46:57;;;;;;;9.07;4.03;;;14.60;99.90;;;;;;5008208;28;20456;-78
2023/05/19 07:49:23;;;;;;;13.57;3.70;;;14.10;99.90;;;;;;5008455;28;20983;-78
2023/05/19 07:51:48;;;;;;;9.48;3.38;;;14.70;99.90;;;;;;4991032;28;20784;-80
2023/05/19 07:54:14;;;;;;;11.10;4.20;;;15.30;99.90;;;;;;5008872;28;20471;-78
2023/05/19 07:56:40;;;;;;;10.43;3.23;;;15.20;99.90;;;;;;5007017;28;20455;-78
2023/05/19 07:59:06;;;;;;;10.27;3.97;;;15.00;99.90;;;;;;4989449;28;20594;-81
2023/05/19 08:01:32;;;;;;;8.98;3.60;;;14.90;99.90;;;;;;4989629;28;20452;-81
2023/05/19 08:03:58;;;;;;;6.63;3.10;;;15.40;99.90;;;;;;5006198;28;20420;-81
2023/05/19 08:06:24;;;;;;;7.70;2.78;;;15.00;99.90;;;;;;5011314;28;20798;-80
2023/05/19 08:08:50;;;;;;;8.60;3.53;;;14.70;99.90;;;;;;5005992;28;20457;-80
2023/05/19 08:11:16;;;;;;;9.20;3.07;;;15.10;99.90;;;;;;5006288;28;20519;-82
2023/05/19 08:13:42;;;;;;;10.47;3.73;;;15.30;99.90;;;;;;5008291;28;20559;-81
2023/05/19 08:16:07;;;;;;;11.97;3.73;;;15.00;99.90;;;;;;5005014;28;20441;-76
2023/05/19 08:18:33;;;;;;;10.23;3.08;;;14.90;99.90;;;;;;5008063;28;20805;-80
2023/05/19 08:20:59;;;;;;;6.47;3.00;;;15.10;99.90;;;;;;4985626;28;20929;-79
2023/05/19 08:23:24;;;;;;;10.73;3.50;;;15.30;99.90;;;;;;5007161;28;20531;-76
2023/05/19 08:25:51;;;;;;;6.85;2.60;;;15.50;99.90;;;;;;4991677;28;20446;-84
2023/05/19 08:28:16;;;;;;;8.65;2.88;;;14.80;99.90;;;;;;5007496;28;20914;-75
2023/05/19 08:30:42;;;;;;;9.23;3.10;;;15.50;99.90;;;;;;5009060;28;20433;-82
2023/05/19 08:33:08;;;;;;;10.07;3.38;;;15.20;99.90;;;;;;4987432;28;20426;-83
2023/05/19 08:35:33;;;;;;;6.97;3.15;;;15.80;99.90;;;;;;4998608;28;20428;-83
2023/05/19 08:37:59;;;;;;;9.90;2.90;;;15.50;99.90;;;;;;5008568;28;20444;-78
2023/05/19 08:40:27;;;;;;;9.90;3.30;;;15.80;99.90;;;;;;4997552;28;20437;-84
2023/05/19 08:42:53;;;;;;;7.85;3.65;;;15.30;99.90;;;;;;5005176;28;20432;-79
2023/05/19 08:45:19;;;;;;;6.87;3.07;;;15.00;99.90;;;;;;5002977;28;20476;-81
2023/05/19 08:47:46;;;;;;;7.23;3.60;;;15.10;99.90;;;;;;5014821;28;20444;-85
2023/05/19 08:50:16;;;;;;;8.23;3.20;;;15.50;99.90;;;;;;5008687;28;20445;-82
2023/05/19 08:52:48;;;;;;;12.17;2.77;;;15.30;99.90;;;;;;5017033;28;20577;-83
2023/05/19 08:55:26;;;;;;;7.05;2.80;;;15.10;99.90;;;;;;5019804;28;20445;-80
2023/05/19 08:57:52;;;;;;;8.57;3.22;;;15.40;99.90;;;;;;4998330;28;20597;-81
2023/05/19 09:00:19;;;;;;;8.40;4.07;;;15.30;99.90;;;;;;4993093;28;20519;-80
2023/05/19 09:02:47;;;;;;;7.95;2.88;;;15.60;99.90;;;;;;5009217;28;20908;-81
2023/05/19 09:05:15;;;;;;;7.68;3.05;;;15.40;99.90;;;;;;5005945;28;20429;-80
2023/05/19 09:07:42;;;;;;;11.17;3.73;;;15.50;99.90;;;;;;5016772;28;20918;-80
2023/05/19 09:10:12;;;;;;;7.38;2.65;;;15.80;99.90;;;;;;5006225;28;20432;-81
2023/05/19 09:12:39;;;;;;;7.10;2.75;;;15.80;99.90;;;;;;4988830;28;20420;-81
2023/05/19 09:15:07;;;;;;;10.30;3.30;;;15.80;99.90;;;;;;4993165;28;20433;-84
2023/05/19 09:17:34;;;;;;;6.88;3.20;;;15.60;99.90;;;;;;5007365;28;20424;-81
2023/05/19 09:20:09;;;;;;;8.30;2.97;;;15.90;99.90;;;;;;5002589;28;20460;-81
2023/05/19 09:22:46;;;;;;;5.88;2.40;;;15.80;99.90;;;;;;4985604;28;20817;-82
2023/05/19 09:25:24;;;;;;;11.18;3.63;;;15.80;99.90;;;;;;5001670;28;20499;-81
2023/05/19 09:27:50;;;;;;;6.75;2.75;;;16.00;99.90;;;;;;5012593;28;20434;-84
2023/05/19 09:30:18;;;;;;;9.45;3.05;;;16.30;99.90;;;;;;5008201;28;20424;-80
2023/05/19 09:32:45;;;;;;;6.87;2.97;;;16.30;99.90;;;;;;5006608;28;20838;-80
2023/05/19 09:35:12;;;;;;;5.55;3.22;;;15.90;99.90;;;;;;4987022;28;20440;-82
2023/05/19 09:37:41;;;;;;;8.65;3.00;;;16.00;99.90;;;;;;4973492;28;20436;-79
2023/05/19 09:40:08;;;;;;;11.07;3.85;;;16.30;99.90;;;;;;5005721;28;20429;-82
2023/05/19 09:42:37;;;;;;;6.43;2.85;;;16.10;99.90;;;;;;5004341;28;20436;-83
2023/05/19 09:45:03;;;;;;;6.73;2.80;;;15.80;99.90;;;;;;5005281;28;20478;-81
2023/05/19 09:47:40;;;;;;;7.15;3.30;;;16.00;99.90;;;;;;5004060;28;20434;-83
2023/05/19 09:50:11;;;;;;;8.35;3.35;;;15.50;99.90;;;;;;5006610;28;20465;-80
2023/05/19 09:52:43;;;;;;;7.18;3.03;;;16.10;99.90;;;;;;5000690;28;20451;-78
2023/05/19 09:55:11;;;;;;;6.93;3.30;;;16.30;99.90;;;;;;5015011;28;20897;-84
2023/05/19 09:57:38;;;;;;;8.43;3.35;;;16.30;99.90;;;;;;4991064;28;20526;-83
2023/05/19 10:00:18;;;;;;;9.90;3.23;;;16.20;99.90;;;;;;5013346;28;20494;-83
2023/05/19 10:02:46;;;;;;;6.95;3.40;;;16.40;99.90;;;;;;5012751;28;20429;-81
2023/05/19 10:05:19;;;;;;;10.48;3.97;;;16.70;99.90;;;;;;5022565;28;20429;-82
2023/05/19 10:07:53;;;;;;;8.73;3.85;;;16.70;99.90;;;;;;5019197;28;21000;-77
2023/05/19 10:10:19;;;;;;;7.70;3.42;;;16.50;99.90;;;;;;5027604;28;20429;-79
2023/05/19 10:12:46;;;;;;;6.78;3.20;;;16.30;99.90;;;;;;5028246;28;20953;-87
2023/05/19 10:15:14;;;;;;;8.63;3.50;;;16.30;99.90;;;;;;5013606;28;20439;-83
2023/05/19 10:17:41;;;;;;;9.25;3.50;;;16.00;99.90;;;;;;5009094;28;20424;-85
2023/05/19 10:20:12;;;;;;;14.05;3.85;;;16.20;99.90;;;;;;4992198;28;20436;-86
2023/05/19 10:22:39;;;;;;;8.00;3.97;;;15.90;99.90;;;;;;5015471;28;20433;-85
2023/05/19 10:25:06;;;;;;;9.20;3.10;;;16.10;99.90;;;;;;5017595;28;20839;-83
2023/05/19 10:27:35;;;;;;;7.65;2.88;;;16.10;99.90;;;;;;4999817;28;20430;-82
2023/05/19 10:30:10;;;;;;;6.53;2.88;;;16.20;99.90;;;;;;5008086;28;20460;-83
2023/05/19 10:32:38;;;;;;;8.60;3.28;;;16.50;99.90;;;;;;5010252;28;20437;-84
2023/05/19 10:35:07;;;;;;;6.22;2.95;;;16.40;99.90;;;;;;5008849;28;20476;-82
2023/05/19 10:37:56;;;;;;;7.70;3.30;;;16.70;99.90;;;;;;5005506;28;20452;-89
2023/05/19 10:40:37;;;;;;;6.70;3.38;;;16.70;99.90;;;;;;5012791;28;20528;-78
2023/05/19 10:43:29;;;;;;;6.35;2.72;;;16.60;99.90;;;;;;5004005;28;20500;-78
2023/05/19 10:45:56;;;;;;;13.15;3.95;;;17.10;99.90;;;;;;4977453;28;20924;-83
2023/05/19 10:48:22;;;;;;;8.80;3.70;;;16.80;99.90;;;;;;5002021;28;20483;-82
2023/05/19 10:50:52;;;;;;;7.27;3.50;;;16.70;99.90;;;;;;5005438;28;20425;-85
2023/05/19 10:53:21;;;;;;;7.68;3.10;;;17.10;99.90;;;;;;4990330;28;20421;-80
2023/05/19 10:55:52;;;;;;;10.30;3.20;;;17.00;99.90;;;;;;5005419;28;20458;-77
2023/05/19 10:58:39;;;;;;;8.05;3.47;;;16.80;99.90;;;;;;4987696;28;20427;-80
2023/05/19 11:01:15;;;;;;;8.95;3.33;;;16.70;99.90;;;;;;5004486;28;20516;-80
2023/05/19 11:03:50;;;;;;;7.03;3.38;;;16.60;99.90;;;;;;4984642;28;20425;-79
2023/05/19 11:06:35;;;;;;;7.18;2.67;;;16.90;99.90;;;;;;4980993;28;20442;-78
2023/05/19 11:09:20;;;;;;;7.93;3.50;;;17.50;99.90;;;;;;5001116;28;20915;-78
2023/05/19 11:11:51;;;;;;;4.47;2.50;;;17.40;99.90;;;;;;5010238;28;20509;-78
2023/05/19 11:14:19;;;;;;;7.30;2.97;;;17.60;99.90;;;;;;5010310;28;20751;-83
2023/05/19 11:16:50;;;;;;;6.00;2.47;;;17.20;99.90;;;;;;5006908;28;20449;-79
2023/05/19 11:19:25;;;;;;;7.43;2.80;;;17.50;99.90;;;;;;5004506;28;20518;-79
2023/05/19 11:21:53;;;;;;;6.70;3.17;;;17.20;99.90;;;;;;4976851;28;20591;-78
2023/05/19 11:24:49;;;;;;;3.80;1.92;;;17.60;99.90;;;;;;5002297;28;20854;-78
2023/05/19 11:27:32;;;;;;;9.10;2.65;;;17.60;99.90;;;;;;5008579;28;20432;-78
2023/05/19 11:30:08;;;;;;;6.60;2.67;;;17.40;99.90;;;;;;5009415;28;20430;-78
2023/05/19 11:32:37;;;;;;;7.72;2.90;;;17.90;99.90;;;;;;5000343;28;20470;-79
2023/05/19 11:35:04;;;;;;;7.38;3.45;;;18.00;98.20;;;;;;5014232;28;20764;-77
2023/05/19 11:37:33;;;;;;;9.52;2.40;;;17.90;99.90;;;;;;5008331;28;20851;-78
2023/05/19 11:40:06;;;;;;;8.00;2.50;;;17.90;99.90;;;;;;5009357;28;20420;-80
2023/05/19 11:42:33;;;;;;;5.80;2.20;;;17.60;97.10;;;;;;5013604;28;20486;-78
2023/05/19 11:44:59;;;;;;;4.88;2.03;;;18.10;94.90;;;;;;4999970;28;20887;-81
2023/05/19 11:47:26;;;;;;;5.03;2.73;;;18.00;93.70;;;;;;4982195;28;20445;-80
2023/05/19 11:49:53;;;;;;;7.67;2.70;;;18.00;97.40;;;;;;5019187;28;20516;-78
2023/05/19 11:52:23;;;;;;;7.57;3.08;;;17.60;98.60;;;;;;4990085;28;20463;-76
2023/05/19 11:54:49;;;;;;;6.37;2.37;;;17.70;99.90;;;;;;5005923;28;21005;-80
2023/05/19 11:57:16;;;;;;;6.32;2.63;;;18.20;97.80;;;;;;5008213;28;20558;-80
2023/05/19 11:59:46;;;;;;;6.45;1.98;;;18.00;97.50;;;;;;5010243;28;20752;-80
2023/05/19 12:02:26;;;;;;;5.95;2.17;;;17.70;99.40;;;;;;5008815;28;20447;-80
2023/05/19 12:04:52;;;;;;;6.43;2.10;;;17.90;91.20;;;;;;5020029;28;20436;-79
2023/05/19 12:07:21;;;;;;;6.60;1.85;;;17.90;90.20;;;;;;5008802;28;20455;-80
2023/05/19 12:09:48;;;;;;;6.60;1.35;;;17.80;88.80;;;;;;4999128;28;20786;-80
2023/05/19 12:12:19;;;;;;;7.60;2.28;;;18.20;93.10;;;;;;4992773;28;20426;-80
2023/05/19 12:14:46;;;;;;;6.63;1.92;;;18.10;87.80;;;;;;5001652;28;20431;-79
2023/05/19 12:17:13;;;;;;;8.07;2.42;;;18.40;89.30;;;;;;4995100;28;20436;-80
2023/05/19 12:19:41;;;;;;;4.20;1.98;;;18.00;89.50;;;;;;5006759;28;20420;-80
2023/05/19 12:22:08;;;;;;;5.43;1.88;;;17.90;92.00;;;;;;5007276;28;20440;-80
2023/05/19 12:24:35;;;;;;;7.32;1.95;;;17.90;91.50;;;;;;5006248;28;20439;-76
2023/05/19 12:27:23;;;;;;;6.45;2.50;;;18.10;92.00;;;;;;4997073;28;20426;-81
2023/05/19 12:29:54;;;;;;;5.30;2.03;;;18.00;91.90;;;;;;5007644;28;20456;-82
2023/05/19 12:32:27;;;;;;;5.47;1.70;;;18.30;92.50;;;;;;5005526;28;20978;-88
2023/05/19 12:34:55;;;;;;;5.35;2.63;;;18.50;94.20;;;;;;5006508;28;20432;-81
2023/05/19 12:37:21;;;;;;;7.72;2.20;;;18.50;92.30;;;;;;5010227;28;20434;-81
2023/05/19 12:39:49;;;;;;;8.40;2.30;;;18.20;92.10;;;;;;5035430;28;20419;-78
2023/05/19 12:42:15;;;;;;;6.72;2.17;;;18.30;91.30;;;;;;5033532;28;20442;-81
2023/05/19 12:44:46;;;;;;;4.93;1.52;;;18.40;93.50;;;;;;4990482;28;20467;-81
2023/05/19 12:47:16;;;;;;;7.73;2.67;;;18.00;90.40;;;;;;4996236;28;20467;-82
2023/05/19 12:49:55;;;;;;;5.57;2.20;;;18.10;91.70;;;;;;5010048;28;20405;-83
2023/05/19 12:52:22;;;;;;;4.65;2.05;;;18.40;94.70;;;;;;5008827;28;20476;-83